Terminal Aerodrome Forecast
Issued by NWS Upton, NY

Home | Current Version | Previous Version | Text Only | Print | Product List | Glossary On
Versions: 1 2 3 4 5 6 7 8 9 10 11 12 13 14 15 16 17 18 19 20 21 22 23 24 25 26 27 28 29 30 31 32
000
FTUS41 KOKX 171120
TAFJFK
TAF
KJFK 171120Z 1712/1818 01010G16KT P6SM SKC
     FM171400 01009KT P6SM SKC
     FM171700 34007KT P6SM SKC
     FM171900 31006KT P6SM SKC
     FM172000 27006KT P6SM SKC
     FM172100 24006KT P6SM SKC
     FM181100 27007KT P6SM SKC
     FM181500 30006KT P6SM SKC
     FM181700 24006KT P6SM SKC=

USA.gov is the U.S. government's official web portal to all federal, state and local government web resources and services.